sensor_id;sensor_type;location;lat;lon;timestamp;temperature;humidity
46816;DHT22;32787;53.316;8.670;2023-04-30T00:00:50;3.80;89.90
46816;DHT22;32787;53.316;8.670;2023-04-30T00:03:15;3.80;90.00
46816;DHT22;32787;53.316;8.670;2023-04-30T00:05:41;3.80;90.20
46816;DHT22;32787;53.316;8.670;2023-04-30T00:08:06;3.80;90.20
46816;DHT22;32787;53.316;8.670;2023-04-30T00:10:32;3.80;90.20
46816;DHT22;32787;53.316;8.670;2023-04-30T00:12:57;3.80;90.30
46816;DHT22;32787;53.316;8.670;2023-04-30T00:15:23;3.70;90.30
46816;DHT22;32787;53.316;8.670;2023-04-30T00:17:48;3.80;90.50
46816;DHT22;32787;53.316;8.670;2023-04-30T00:20:14;4.00;90.40
46816;DHT22;32787;53.316;8.670;2023-04-30T00:22:39;3.90;90.20
46816;DHT22;32787;53.316;8.670;2023-04-30T00:25:05;3.90;90.30
46816;DHT22;32787;53.316;8.670;2023-04-30T00:27:31;3.90;90.30
46816;DHT22;32787;53.316;8.670;2023-04-30T00:29:56;3.90;90.40
46816;DHT22;32787;53.316;8.670;2023-04-30T00:32:22;3.90;90.00
46816;DHT22;32787;53.316;8.670;2023-04-30T00:34:47;3.60;90.10
46816;DHT22;32787;53.316;8.670;2023-04-30T00:37:13;3.60;90.10
46816;DHT22;32787;53.316;8.670;2023-04-30T00:39:38;3.50;90.20
46816;DHT22;32787;53.316;8.670;2023-04-30T00:42:04;3.40;90.20
46816;DHT22;32787;53.316;8.670;2023-04-30T00:44:29;3.30;90.50
46816;DHT22;32787;53.316;8.670;2023-04-30T00:46:55;3.40;90.60
46816;DHT22;32787;53.316;8.670;2023-04-30T00:49:20;3.40;90.60
46816;DHT22;32787;53.316;8.670;2023-04-30T00:51:46;3.30;90.50
46816;DHT22;32787;53.316;8.670;2023-04-30T00:54:12;3.40;90.60
46816;DHT22;32787;53.316;8.670;2023-04-30T00:56:38;3.30;90.50
46816;DHT22;32787;53.316;8.670;2023-04-30T00:59:03;3.20;90.50
46816;DHT22;32787;53.316;8.670;2023-04-30T01:01:29;3.30;90.60
46816;DHT22;32787;53.316;8.670;2023-04-30T01:03:54;3.60;90.60
46816;DHT22;32787;53.316;8.670;2023-04-30T01:06:20;3.60;90.40
46816;DHT22;32787;53.316;8.670;2023-04-30T01:08:46;3.80;89.90
46816;DHT22;32787;53.316;8.670;2023-04-30T01:16:29;3.50;89.50
46816;DHT22;32787;53.316;8.670;2023-04-30T01:19:04;3.50;89.90
46816;DHT22;32787;53.316;8.670;2023-04-30T01:21:33;3.50;90.00
46816;DHT22;32787;53.316;8.670;2023-04-30T01:24:05;3.70;89.80
46816;DHT22;32787;53.316;8.670;2023-04-30T01:29:19;3.80;89.40
46816;DHT22;32787;53.316;8.670;2023-04-30T01:31:45;3.40;89.10
46816;DHT22;32787;53.316;8.670;2023-04-30T01:34:11;3.10;89.40
46816;DHT22;32787;53.316;8.670;2023-04-30T01:36:43;2.90;89.70
46816;DHT22;32787;53.316;8.670;2023-04-30T01:41:59;2.70;90.10
46816;DHT22;32787;53.316;8.670;2023-04-30T01:47:20;2.60;90.40
46816;DHT22;32787;53.316;8.670;2023-04-30T01:49:56;2.50;90.60
46816;DHT22;32787;53.316;8.670;2023-04-30T01:52:30;2.40;90.80
46816;DHT22;32787;53.316;8.670;2023-04-30T01:54:59;2.50;90.90
46816;DHT22;32787;53.316;8.670;2023-04-30T01:57:29;2.50;91.00
46816;DHT22;32787;53.316;8.670;2023-04-30T01:59:56;2.60;91.10
46816;DHT22;32787;53.316;8.670;2023-04-30T02:02:22;2.80;91.30
46816;DHT22;32787;53.316;8.670;2023-04-30T02:04:47;2.80;91.00
46816;DHT22;32787;53.316;8.670;2023-04-30T02:07:16;2.70;91.00
46816;DHT22;32787;53.316;8.670;2023-04-30T02:09:43;2.60;91.00
46816;DHT22;32787;53.316;8.670;2023-04-30T02:12:08;2.80;91.00
46816;DHT22;32787;53.316;8.670;2023-04-30T02:14:35;2.70;90.90
46816;DHT22;32787;53.316;8.670;2023-04-30T02:17:00;2.60;91.00
46816;DHT22;32787;53.316;8.670;2023-04-30T02:19:26;2.60;91.00
46816;DHT22;32787;53.316;8.670;2023-04-30T02:21:51;2.90;91.40
46816;DHT22;32787;53.316;8.670;2023-04-30T02:24:17;2.80;91.00
46816;DHT22;32787;53.316;8.670;2023-04-30T02:26:42;2.70;91.00
46816;DHT22;32787;53.316;8.670;2023-04-30T02:29:08;2.90;91.20
46816;DHT22;32787;53.316;8.670;2023-04-30T02:31:33;2.80;90.80
46816;DHT22;32787;53.316;8.670;2023-04-30T02:33:59;2.60;90.80
46816;DHT22;32787;53.316;8.670;2023-04-30T02:36:24;2.50;90.90
46816;DHT22;32787;53.316;8.670;2023-04-30T02:38:50;2.40;90.90
46816;DHT22;32787;53.316;8.670;2023-04-30T02:41:15;2.40;91.10
46816;DHT22;32787;53.316;8.670;2023-04-30T02:43:41;2.50;91.20
46816;DHT22;32787;53.316;8.670;2023-04-30T02:46:06;2.60;91.40
46816;DHT22;32787;53.316;8.670;2023-04-30T02:48:32;2.80;91.10
46816;DHT22;32787;53.316;8.670;2023-04-30T02:50:57;2.80;90.90
46816;DHT22;32787;53.316;8.670;2023-04-30T02:53:23;2.60;90.70
46816;DHT22;32787;53.316;8.670;2023-04-30T02:55:48;2.60;90.70
46816;DHT22;32787;53.316;8.670;2023-04-30T02:58:14;2.90;90.80
46816;DHT22;32787;53.316;8.670;2023-04-30T03:00:39;2.90;90.80
46816;DHT22;32787;53.316;8.670;2023-04-30T03:03:05;2.60;90.60
46816;DHT22;32787;53.316;8.670;2023-04-30T03:05:30;2.60;90.60
46816;DHT22;32787;53.316;8.670;2023-04-30T03:07:56;2.40;90.70
46816;DHT22;32787;53.316;8.670;2023-04-30T03:10:21;2.40;90.70
46816;DHT22;32787;53.316;8.670;2023-04-30T03:12:47;2.50;91.10
46816;DHT22;32787;53.316;8.670;2023-04-30T03:15:12;2.60;90.90
46816;DHT22;32787;53.316;8.670;2023-04-30T03:17:38;2.40;90.70
46816;DHT22;32787;53.316;8.670;2023-04-30T03:20:04;2.10;90.80
46816;DHT22;32787;53.316;8.670;2023-04-30T03:22:29;2.00;91.00
46816;DHT22;32787;53.316;8.670;2023-04-30T03:24:55;2.00;91.10
46816;DHT22;32787;53.316;8.670;2023-04-30T03:27:20;2.00;91.10
46816;DHT22;32787;53.316;8.670;2023-04-30T03:29:46;1.90;91.10
46816;DHT22;32787;53.316;8.670;2023-04-30T03:32:13;1.90;91.20
46816;DHT22;32787;53.316;8.670;2023-04-30T03:34:38;1.80;91.30
46816;DHT22;32787;53.316;8.670;2023-04-30T03:37:04;1.90;91.30
46816;DHT22;32787;53.316;8.670;2023-04-30T03:39:29;1.80;91.30
46816;DHT22;32787;53.316;8.670;2023-04-30T03:41:55;1.70;91.30
46816;DHT22;32787;53.316;8.670;2023-04-30T03:44:20;1.60;91.50
46816;DHT22;32787;53.316;8.670;2023-04-30T03:46:46;1.80;91.70
46816;DHT22;32787;53.316;8.670;2023-04-30T03:49:11;1.90;91.50
46816;DHT22;32787;53.316;8.670;2023-04-30T03:51:37;1.80;91.40
46816;DHT22;32787;53.316;8.670;2023-04-30T03:54:06;1.80;91.40
46816;DHT22;32787;53.316;8.670;2023-04-30T03:56:32;2.20;91.60
46816;DHT22;32787;53.316;8.670;2023-04-30T03:58:57;2.40;91.30
46816;DHT22;32787;53.316;8.670;2023-04-30T04:01:23;2.20;90.80
46816;DHT22;32787;53.316;8.670;2023-04-30T04:03:48;2.40;90.70
46816;DHT22;32787;53.316;8.670;2023-04-30T04:06:14;2.40;90.70
46816;DHT22;32787;53.316;8.670;2023-04-30T04:08:39;2.10;90.70
46816;DHT22;32787;53.316;8.670;2023-04-30T04:11:08;2.10;90.80
46816;DHT22;32787;53.316;8.670;2023-04-30T04:13:33;1.90;90.80
46816;DHT22;32787;53.316;8.670;2023-04-30T04:15:59;1.90;90.90
46816;DHT22;32787;53.316;8.670;2023-04-30T04:18:24;1.90;91.20
46816;DHT22;32787;53.316;8.670;2023-04-30T04:20:50;2.30;91.40
46816;DHT22;32787;53.316;8.670;2023-04-30T04:23:16;2.40;91.10
46816;DHT22;32787;53.316;8.670;2023-04-30T04:25:41;2.60;91.00
46816;DHT22;32787;53.316;8.670;2023-04-30T04:28:08;2.40;90.60
46816;DHT22;32787;53.316;8.670;2023-04-30T04:30:34;2.20;90.70
46816;DHT22;32787;53.316;8.670;2023-04-30T04:33:00;2.20;90.90
46816;DHT22;32787;53.316;8.670;2023-04-30T04:35:26;2.40;90.90
46816;DHT22;32787;53.316;8.670;2023-04-30T04:37:52;2.30;91.00
46816;DHT22;32787;53.316;8.670;2023-04-30T04:40:17;2.50;91.20
46816;DHT22;32787;53.316;8.670;2023-04-30T04:42:43;2.50;91.10
46816;DHT22;32787;53.316;8.670;2023-04-30T04:45:08;2.60;91.20
46816;DHT22;32787;53.316;8.670;2023-04-30T04:47:34;2.60;91.20
46816;DHT22;32787;53.316;8.670;2023-04-30T04:50:00;2.60;91.20
46816;DHT22;32787;53.316;8.670;2023-04-30T04:52:26;2.90;91.40
46816;DHT22;32787;53.316;8.670;2023-04-30T04:54:52;2.90;91.20
46816;DHT22;32787;53.316;8.670;2023-04-30T04:57:17;3.00;91.20
46816;DHT22;32787;53.316;8.670;2023-04-30T04:59:42;3.00;91.20
46816;DHT22;32787;53.316;8.670;2023-04-30T05:02:08;3.00;91.10
46816;DHT22;32787;53.316;8.670;2023-04-30T05:04:33;3.10;91.20
46816;DHT22;32787;53.316;8.670;2023-04-30T05:06:59;3.30;91.30
46816;DHT22;32787;53.316;8.670;2023-04-30T05:09:24;3.60;91.20
46816;DHT22;32787;53.316;8.670;2023-04-30T05:11:50;3.80;90.90
46816;DHT22;32787;53.316;8.670;2023-04-30T05:14:15;3.90;90.30
46816;DHT22;32787;53.316;8.670;2023-04-30T05:16:41;3.90;90.10
46816;DHT22;32787;53.316;8.670;2023-04-30T05:19:07;3.90;90.00
46816;DHT22;32787;53.316;8.670;2023-04-30T05:21:34;3.80;89.90
46816;DHT22;32787;53.316;8.670;2023-04-30T05:23:59;3.80;90.10
46816;DHT22;32787;53.316;8.670;2023-04-30T05:26:25;3.80;90.10
46816;DHT22;32787;53.316;8.670;2023-04-30T05:28:50;3.90;90.20
46816;DHT22;32787;53.316;8.670;2023-04-30T05:31:16;4.00;90.30
46816;DHT22;32787;53.316;8.670;2023-04-30T05:33:42;4.20;90.20
46816;DHT22;32787;53.316;8.670;2023-04-30T05:36:08;4.30;90.30
46816;DHT22;32787;53.316;8.670;2023-04-30T05:38:34;4.40;90.10
46816;DHT22;32787;53.316;8.670;2023-04-30T05:40:59;4.40;90.20
46816;DHT22;32787;53.316;8.670;2023-04-30T05:43:25;4.60;90.40
46816;DHT22;32787;53.316;8.670;2023-04-30T05:45:50;4.80;90.40
46816;DHT22;32787;53.316;8.670;2023-04-30T05:48:16;5.00;90.20
46816;DHT22;32787;53.316;8.670;2023-04-30T05:50:41;5.00;90.20
46816;DHT22;32787;53.316;8.670;2023-04-30T05:53:07;5.20;90.20
46816;DHT22;32787;53.316;8.670;2023-04-30T05:55:33;5.30;89.90
46816;DHT22;32787;53.316;8.670;2023-04-30T05:57:58;5.30;90.00
46816;DHT22;32787;53.316;8.670;2023-04-30T06:00:24;5.40;89.90
46816;DHT22;32787;53.316;8.670;2023-04-30T06:02:49;5.60;89.90
46816;DHT22;32787;53.316;8.670;2023-04-30T06:05:15;5.60;89.70
46816;DHT22;32787;53.316;8.670;2023-04-30T06:07:41;5.70;89.70
46816;DHT22;32787;53.316;8.670;2023-04-30T06:10:06;5.70;89.70
46816;DHT22;32787;53.316;8.670;2023-04-30T06:12:33;6.00;89.50
46816;DHT22;32787;53.316;8.670;2023-04-30T06:14:59;6.00;88.80
46816;DHT22;32787;53.316;8.670;2023-04-30T06:17:24;6.30;88.10
46816;DHT22;32787;53.316;8.670;2023-04-30T06:19:50;6.40;85.70
46816;DHT22;32787;53.316;8.670;2023-04-30T06:22:15;6.40;85.60
46816;DHT22;32787;53.316;8.670;2023-04-30T06:24:41;6.40;85.50
46816;DHT22;32787;53.316;8.670;2023-04-30T06:27:06;6.60;84.80
46816;DHT22;32787;53.316;8.670;2023-04-30T06:29:32;6.60;80.80
46816;DHT22;32787;53.316;8.670;2023-04-30T06:31:57;6.80;80.80
46816;DHT22;32787;53.316;8.670;2023-04-30T06:34:23;7.10;79.90
46816;DHT22;32787;53.316;8.670;2023-04-30T06:36:48;7.10;78.20
46816;DHT22;32787;53.316;8.670;2023-04-30T06:39:14;7.20;76.80
46816;DHT22;32787;53.316;8.670;2023-04-30T06:41:40;7.20;76.80
46816;DHT22;32787;53.316;8.670;2023-04-30T06:44:06;7.30;77.20
46816;DHT22;32787;53.316;8.670;2023-04-30T06:46:32;7.50;75.40
46816;DHT22;32787;53.316;8.670;2023-04-30T06:48:58;7.70;73.30
46816;DHT22;32787;53.316;8.670;2023-04-30T06:51:24;7.70;72.00
46816;DHT22;32787;53.316;8.670;2023-04-30T06:53:50;7.80;74.30
46816;DHT22;32787;53.316;8.670;2023-04-30T06:56:16;7.90;71.80
46816;DHT22;32787;53.316;8.670;2023-04-30T06:58:41;7.80;71.60
46816;DHT22;32787;53.316;8.670;2023-04-30T07:01:07;7.80;72.50
46816;DHT22;32787;53.316;8.670;2023-04-30T07:03:33;7.80;72.30
46816;DHT22;32787;53.316;8.670;2023-04-30T07:05:59;7.90;72.30
46816;DHT22;32787;53.316;8.670;2023-04-30T07:08:24;8.00;68.80
46816;DHT22;32787;53.316;8.670;2023-04-30T07:10:50;8.20;67.60
46816;DHT22;32787;53.316;8.670;2023-04-30T07:13:15;8.40;65.40
46816;DHT22;32787;53.316;8.670;2023-04-30T07:15:41;8.50;67.90
46816;DHT22;32787;53.316;8.670;2023-04-30T07:18:07;8.80;65.30
46816;DHT22;32787;53.316;8.670;2023-04-30T07:20:32;9.10;65.90
46816;DHT22;32787;53.316;8.670;2023-04-30T07:22:58;9.20;65.50
46816;DHT22;32787;53.316;8.670;2023-04-30T07:25:24;9.40;66.20
46816;DHT22;32787;53.316;8.670;2023-04-30T07:27:53;9.80;63.90
46816;DHT22;32787;53.316;8.670;2023-04-30T07:30:19;10.10;63.50
46816;DHT22;32787;53.316;8.670;2023-04-30T07:32:45;9.80;63.10
46816;DHT22;32787;53.316;8.670;2023-04-30T07:35:11;9.70;61.30
46816;DHT22;32787;53.316;8.670;2023-04-30T07:37:38;9.60;64.60
46816;DHT22;32787;53.316;8.670;2023-04-30T07:40:04;9.60;64.60
46816;DHT22;32787;53.316;8.670;2023-04-30T07:42:29;9.60;63.50
46816;DHT22;32787;53.316;8.670;2023-04-30T07:44:55;9.60;62.10
46816;DHT22;32787;53.316;8.670;2023-04-30T07:47:20;9.40;62.40
46816;DHT22;32787;53.316;8.670;2023-04-30T07:49:46;9.40;64.00
46816;DHT22;32787;53.316;8.670;2023-04-30T07:52:12;9.80;62.50
46816;DHT22;32787;53.316;8.670;2023-04-30T07:54:37;9.70;62.70
46816;DHT22;32787;53.316;8.670;2023-04-30T07:57:04;9.60;62.60
46816;DHT22;32787;53.316;8.670;2023-04-30T07:59:31;9.70;62.10
46816;DHT22;32787;53.316;8.670;2023-04-30T08:01:56;10.00;61.80
46816;DHT22;32787;53.316;8.670;2023-04-30T08:04:22;10.30;62.60
46816;DHT22;32787;53.316;8.670;2023-04-30T08:06:47;10.30;61.50
46816;DHT22;32787;53.316;8.670;2023-04-30T08:09:13;9.90;63.10
46816;DHT22;32787;53.316;8.670;2023-04-30T08:11:40;9.70;63.40
46816;DHT22;32787;53.316;8.670;2023-04-30T08:14:05;9.60;64.10
46816;DHT22;32787;53.316;8.670;2023-04-30T08:16:31;9.50;62.30
46816;DHT22;32787;53.316;8.670;2023-04-30T08:18:56;9.40;64.00
46816;DHT22;32787;53.316;8.670;2023-04-30T08:21:22;9.60;64.60
46816;DHT22;32787;53.316;8.670;2023-04-30T08:23:48;9.80;62.90
46816;DHT22;32787;53.316;8.670;2023-04-30T08:26:13;10.00;63.80
46816;DHT22;32787;53.316;8.670;2023-04-30T08:28:39;10.20;61.70
46816;DHT22;32787;53.316;8.670;2023-04-30T08:31:04;10.10;61.70
46816;DHT22;32787;53.316;8.670;2023-04-30T08:33:30;10.10;61.80
46816;DHT22;32787;53.316;8.670;2023-04-30T08:35:56;9.80;62.40
46816;DHT22;32787;53.316;8.670;2023-04-30T08:38:22;9.70;62.70
46816;DHT22;32787;53.316;8.670;2023-04-30T08:41:04;9.70;62.50
46816;DHT22;32787;53.316;8.670;2023-04-30T08:43:33;9.70;64.20
46816;DHT22;32787;53.316;8.670;2023-04-30T08:45:59;9.80;62.70
46816;DHT22;32787;53.316;8.670;2023-04-30T08:48:25;10.00;64.40
46816;DHT22;32787;53.316;8.670;2023-04-30T08:50:51;10.20;61.10
46816;DHT22;32787;53.316;8.670;2023-04-30T08:53:17;10.50;61.40
46816;DHT22;32787;53.316;8.670;2023-04-30T08:55:45;10.80;60.50
46816;DHT22;32787;53.316;8.670;2023-04-30T08:58:10;11.00;59.50
46816;DHT22;32787;53.316;8.670;2023-04-30T09:00:36;11.60;57.70
46816;DHT22;32787;53.316;8.670;2023-04-30T09:03:03;12.10;54.30
46816;DHT22;32787;53.316;8.670;2023-04-30T09:05:28;12.00;54.20
46816;DHT22;32787;53.316;8.670;2023-04-30T09:07:55;11.40;57.10
46816;DHT22;32787;53.316;8.670;2023-04-30T09:10:20;11.30;59.20
46816;DHT22;32787;53.316;8.670;2023-04-30T09:13:00;12.30;55.50
46816;DHT22;32787;53.316;8.670;2023-04-30T09:15:26;12.80;53.20
46816;DHT22;32787;53.316;8.670;2023-04-30T09:18:08;13.30;53.50
46816;DHT22;32787;53.316;8.670;2023-04-30T09:20:34;13.30;53.30
46816;DHT22;32787;53.316;8.670;2023-04-30T09:23:09;12.50;52.00
46816;DHT22;32787;53.316;8.670;2023-04-30T09:25:41;12.20;54.20
46816;DHT22;32787;53.316;8.670;2023-04-30T09:28:07;12.30;54.10
46816;DHT22;32787;53.316;8.670;2023-04-30T09:30:33;12.20;53.70
46816;DHT22;32787;53.316;8.670;2023-04-30T09:32:59;12.10;54.60
46816;DHT22;32787;53.316;8.670;2023-04-30T09:35:31;11.60;53.60
46816;DHT22;32787;53.316;8.670;2023-04-30T09:38:00;11.30;56.70
46816;DHT22;32787;53.316;8.670;2023-04-30T09:40:35;11.80;56.30
46816;DHT22;32787;53.316;8.670;2023-04-30T09:43:01;12.00;57.70
46816;DHT22;32787;53.316;8.670;2023-04-30T09:45:37;12.10;55.40
46816;DHT22;32787;53.316;8.670;2023-04-30T09:48:03;11.80;55.40
46816;DHT22;32787;53.316;8.670;2023-04-30T09:50:35;11.20;55.30
46816;DHT22;32787;53.316;8.670;2023-04-30T09:53:07;10.70;57.80
46816;DHT22;32787;53.316;8.670;2023-04-30T09:55:34;10.60;58.00
46816;DHT22;32787;53.316;8.670;2023-04-30T09:58:00;10.90;57.40
46816;DHT22;32787;53.316;8.670;2023-04-30T10:00:26;10.80;58.20
46816;DHT22;32787;53.316;8.670;2023-04-30T10:02:52;10.90;58.90
46816;DHT22;32787;53.316;8.670;2023-04-30T10:05:18;10.90;57.90
46816;DHT22;32787;53.316;8.670;2023-04-30T10:07:43;10.90;57.30
46816;DHT22;32787;53.316;8.670;2023-04-30T10:10:09;11.00;58.10
46816;DHT22;32787;53.316;8.670;2023-04-30T10:13:09;11.10;61.00
46816;DHT22;32787;53.316;8.670;2023-04-30T10:15:31;11.30;57.20
46816;DHT22;32787;53.316;8.670;2023-04-30T10:20:24;11.20;58.40
46816;DHT22;32787;53.316;8.670;2023-04-30T10:22:50;11.20;58.70
46816;DHT22;32787;53.316;8.670;2023-04-30T10:25:16;11.30;59.30
46816;DHT22;32787;53.316;8.670;2023-04-30T10:27:42;11.30;57.30
46816;DHT22;32787;53.316;8.670;2023-04-30T10:30:09;11.30;58.20
46816;DHT22;32787;53.316;8.670;2023-04-30T10:32:42;11.10;57.00
46816;DHT22;32787;53.316;8.670;2023-04-30T10:35:15;11.10;58.50
46816;DHT22;32787;53.316;8.670;2023-04-30T10:37:52;11.30;57.20
46816;DHT22;32787;53.316;8.670;2023-04-30T10:40:18;11.50;58.40
46816;DHT22;32787;53.316;8.670;2023-04-30T10:42:44;11.70;57.30
46816;DHT22;32787;53.316;8.670;2023-04-30T10:45:10;11.60;58.30
46816;DHT22;32787;53.316;8.670;2023-04-30T10:47:36;11.80;58.10
46816;DHT22;32787;53.316;8.670;2023-04-30T10:50:03;11.70;57.70
46816;DHT22;32787;53.316;8.670;2023-04-30T10:52:29;11.80;56.90
46816;DHT22;32787;53.316;8.670;2023-04-30T10:54:55;12.00;56.00
46816;DHT22;32787;53.316;8.670;2023-04-30T10:57:20;12.20;55.50
46816;DHT22;32787;53.316;8.670;2023-04-30T10:59:51;12.50;56.30
46816;DHT22;32787;53.316;8.670;2023-04-30T11:02:17;13.20;54.50
46816;DHT22;32787;53.316;8.670;2023-04-30T11:07:27;15.30;52.30
46816;DHT22;32787;53.316;8.670;2023-04-30T11:09:53;17.10;47.00
46816;DHT22;32787;53.316;8.670;2023-04-30T11:12:21;17.00;46.60
46816;DHT22;32787;53.316;8.670;2023-04-30T11:14:57;17.00;46.80
46816;DHT22;32787;53.316;8.670;2023-04-30T11:17:23;17.50;46.30
46816;DHT22;32787;53.316;8.670;2023-04-30T11:19:49;17.60;43.20
46816;DHT22;32787;53.316;8.670;2023-04-30T11:22:16;17.90;43.70
46816;DHT22;32787;53.316;8.670;2023-04-30T11:24:51;18.00;44.10
46816;DHT22;32787;53.316;8.670;2023-04-30T11:27:21;17.90;41.90
46816;DHT22;32787;53.316;8.670;2023-04-30T11:29:47;16.60;43.20
46816;DHT22;32787;53.316;8.670;2023-04-30T11:32:13;15.80;45.60
46816;DHT22;32787;53.316;8.670;2023-04-30T11:34:39;15.30;47.60
46816;DHT22;32787;53.316;8.670;2023-04-30T11:37:08;14.60;48.90
46816;DHT22;32787;53.316;8.670;2023-04-30T11:39:36;14.60;50.50
46816;DHT22;32787;53.316;8.670;2023-04-30T11:42:02;15.90;47.20
46816;DHT22;32787;53.316;8.670;2023-04-30T11:44:28;16.60;46.00
46816;DHT22;32787;53.316;8.670;2023-04-30T11:46:54;16.00;49.00
46816;DHT22;32787;53.316;8.670;2023-04-30T11:49:20;15.30;49.00
46816;DHT22;32787;53.316;8.670;2023-04-30T11:51:49;15.50;47.70
46816;DHT22;32787;53.316;8.670;2023-04-30T11:54:15;15.20;46.60
46816;DHT22;32787;53.316;8.670;2023-04-30T11:56:44;15.50;47.70
46816;DHT22;32787;53.316;8.670;2023-04-30T11:59:12;14.80;49.00
46816;DHT22;32787;53.316;8.670;2023-04-30T12:01:38;15.70;47.10
46816;DHT22;32787;53.316;8.670;2023-04-30T12:04:04;15.80;47.90
46816;DHT22;32787;53.316;8.670;2023-04-30T12:06:30;14.90;48.80
46816;DHT22;32787;53.316;8.670;2023-04-30T12:08:57;14.90;50.20
46816;DHT22;32787;53.316;8.670;2023-04-30T12:11:24;15.10;51.30
46816;DHT22;32787;53.316;8.670;2023-04-30T12:13:51;14.10;50.50
46816;DHT22;32787;53.316;8.670;2023-04-30T12:16:16;14.00;52.00
46816;DHT22;32787;53.316;8.670;2023-04-30T12:18:41;14.10;52.20
46816;DHT22;32787;53.316;8.670;2023-04-30T12:21:07;14.30;55.10
46816;DHT22;32787;53.316;8.670;2023-04-30T12:23:33;14.60;50.00
46816;DHT22;32787;53.316;8.670;2023-04-30T12:25:59;14.30;51.30
46816;DHT22;32787;53.316;8.670;2023-04-30T12:28:24;13.90;52.60
46816;DHT22;32787;53.316;8.670;2023-04-30T12:30:52;14.40;53.50
46816;DHT22;32787;53.316;8.670;2023-04-30T12:33:18;14.60;50.90
46816;DHT22;32787;53.316;8.670;2023-04-30T12:35:44;14.40;52.30
46816;DHT22;32787;53.316;8.670;2023-04-30T12:38:09;14.10;51.70
46816;DHT22;32787;53.316;8.670;2023-04-30T12:40:35;13.90;53.40
46816;DHT22;32787;53.316;8.670;2023-04-30T12:43:02;14.40;54.20
46816;DHT22;32787;53.316;8.670;2023-04-30T12:48:12;15.40;56.80
46816;DHT22;32787;53.316;8.670;2023-04-30T12:50:37;16.30;54.90
46816;DHT22;32787;53.316;8.670;2023-04-30T12:53:03;16.90;48.90
46816;DHT22;32787;53.316;8.670;2023-04-30T12:55:29;17.10;49.40
46816;DHT22;32787;53.316;8.670;2023-04-30T12:58:05;18.20;46.60
46816;DHT22;32787;53.316;8.670;2023-04-30T13:00:47;19.00;44.00
46816;DHT22;32787;53.316;8.670;2023-04-30T13:03:13;20.40;39.90
46816;DHT22;32787;53.316;8.670;2023-04-30T13:05:40;20.30;39.20
46816;DHT22;32787;53.316;8.670;2023-04-30T13:08:06;18.30;41.80
46816;DHT22;32787;53.316;8.670;2023-04-30T13:10:31;17.40;46.20
46816;DHT22;32787;53.316;8.670;2023-04-30T13:12:57;16.10;46.80
46816;DHT22;32787;53.316;8.670;2023-04-30T13:15:23;15.00;51.50
46816;DHT22;32787;53.316;8.670;2023-04-30T13:17:49;15.50;49.20
46816;DHT22;32787;53.316;8.670;2023-04-30T13:20:15;17.30;45.10
46816;DHT22;32787;53.316;8.670;2023-04-30T13:22:40;17.30;44.50
46816;DHT22;32787;53.316;8.670;2023-04-30T13:25:06;16.80;46.00
46816;DHT22;32787;53.316;8.670;2023-04-30T13:27:32;17.10;46.20
46816;DHT22;32787;53.316;8.670;2023-04-30T13:29:58;17.00;45.20
46816;DHT22;32787;53.316;8.670;2023-04-30T13:32:23;16.50;47.10
46816;DHT22;32787;53.316;8.670;2023-04-30T13:34:48;15.80;48.30
46816;DHT22;32787;53.316;8.670;2023-04-30T13:37:16;16.00;48.00
46816;DHT22;32787;53.316;8.670;2023-04-30T13:39:42;15.80;48.90
46816;DHT22;32787;53.316;8.670;2023-04-30T13:42:07;15.00;50.50
46816;DHT22;32787;53.316;8.670;2023-04-30T13:44:32;16.20;49.00
46816;DHT22;32787;53.316;8.670;2023-04-30T13:46:58;17.30;46.10
46816;DHT22;32787;53.316;8.670;2023-04-30T13:49:24;18.30;43.70
46816;DHT22;32787;53.316;8.670;2023-04-30T13:51:49;19.50;40.80
46816;DHT22;32787;53.316;8.670;2023-04-30T13:54:15;20.70;38.30
46816;DHT22;32787;53.316;8.670;2023-04-30T13:56:40;21.50;39.30
46816;DHT22;32787;53.316;8.670;2023-04-30T13:59:06;22.30;36.20
46816;DHT22;32787;53.316;8.670;2023-04-30T14:01:32;20.20;38.60
46816;DHT22;32787;53.316;8.670;2023-04-30T14:03:58;20.30;41.10
46816;DHT22;32787;53.316;8.670;2023-04-30T14:06:24;20.00;39.60
46816;DHT22;32787;53.316;8.670;2023-04-30T14:08:49;21.00;37.90
46816;DHT22;32787;53.316;8.670;2023-04-30T14:11:15;21.80;37.50
46816;DHT22;32787;53.316;8.670;2023-04-30T14:13:41;22.40;37.50
46816;DHT22;32787;53.316;8.670;2023-04-30T14:16:06;22.70;35.20
46816;DHT22;32787;53.316;8.670;2023-04-30T14:18:32;22.80;33.50
46816;DHT22;32787;53.316;8.670;2023-04-30T14:20:58;22.70;34.20
46816;DHT22;32787;53.316;8.670;2023-04-30T14:23:24;23.70;32.50
46816;DHT22;32787;53.316;8.670;2023-04-30T14:25:50;22.80;33.50
46816;DHT22;32787;53.316;8.670;2023-04-30T14:28:16;22.00;34.50
46816;DHT22;32787;53.316;8.670;2023-04-30T14:30:41;21.50;35.20
46816;DHT22;32787;53.316;8.670;2023-04-30T14:33:07;21.20;36.70
46816;DHT22;32787;53.316;8.670;2023-04-30T14:35:35;21.30;36.60
46816;DHT22;32787;53.316;8.670;2023-04-30T14:38:01;21.90;35.30
46816;DHT22;32787;53.316;8.670;2023-04-30T14:40:28;22.20;34.40
46816;DHT22;32787;53.316;8.670;2023-04-30T14:42:53;21.40;36.40
46816;DHT22;32787;53.316;8.670;2023-04-30T14:45:19;20.60;36.00
46816;DHT22;32787;53.316;8.670;2023-04-30T14:47:45;20.70;37.50
46816;DHT22;32787;53.316;8.670;2023-04-30T14:50:10;21.10;37.20
46816;DHT22;32787;53.316;8.670;2023-04-30T14:52:37;20.50;37.40
46816;DHT22;32787;53.316;8.670;2023-04-30T14:55:02;20.70;37.30
46816;DHT22;32787;53.316;8.670;2023-04-30T14:57:29;21.00;36.50
46816;DHT22;32787;53.316;8.670;2023-04-30T14:59:54;21.30;36.40
46816;DHT22;32787;53.316;8.670;2023-04-30T15:02:22;20.40;37.60
46816;DHT22;32787;53.316;8.670;2023-04-30T15:04:47;19.30;40.40
46816;DHT22;32787;53.316;8.670;2023-04-30T15:07:13;19.20;40.50
46816;DHT22;32787;53.316;8.670;2023-04-30T15:09:39;19.00;41.80
46816;DHT22;32787;53.316;8.670;2023-04-30T15:12:05;18.60;42.40
46816;DHT22;32787;53.316;8.670;2023-04-30T15:14:30;18.70;42.50
46816;DHT22;32787;53.316;8.670;2023-04-30T15:16:56;19.00;42.30
46816;DHT22;32787;53.316;8.670;2023-04-30T15:19:22;20.10;41.10
46816;DHT22;32787;53.316;8.670;2023-04-30T15:21:48;21.00;38.80
46816;DHT22;32787;53.316;8.670;2023-04-30T15:24:13;19.30;40.60
46816;DHT22;32787;53.316;8.670;2023-04-30T15:26:40;18.50;43.20
46816;DHT22;32787;53.316;8.670;2023-04-30T15:29:06;18.50;41.90
46816;DHT22;32787;53.316;8.670;2023-04-30T15:31:33;19.70;40.60
46816;DHT22;32787;53.316;8.670;2023-04-30T15:33:59;20.70;37.90
46816;DHT22;32787;53.316;8.670;2023-04-30T15:36:25;20.20;39.70
46816;DHT22;32787;53.316;8.670;2023-04-30T15:38:50;19.90;39.80
46816;DHT22;32787;53.316;8.670;2023-04-30T15:41:16;20.60;38.50
46816;DHT22;32787;53.316;8.670;2023-04-30T15:43:41;20.40;39.40
46816;DHT22;32787;53.316;8.670;2023-04-30T15:46:07;20.70;37.80
46816;DHT22;32787;53.316;8.670;2023-04-30T15:48:32;21.10;36.70
46816;DHT22;32787;53.316;8.670;2023-04-30T15:50:58;22.30;37.50
46816;DHT22;32787;53.316;8.670;2023-04-30T15:53:23;23.20;36.10
46816;DHT22;32787;53.316;8.670;2023-04-30T15:55:49;23.60;34.10